Time;durP1;ratioP1;P1;durP2;ratioP2;P2;SDS_P1;SDS_P2;PMS_P1;PMS_P2;Temp;Humidity;BMP_temperature;BMP_pressure;BME280_temperature;BME280_humidity;BME280_pressure;Samples;Min_cycle;Max_cycle;Signal;HPM_P1;HPM_P2
2023/07/31 00:03:12;;;;;;;3.15;1.30;;;23.20;94.80;;;;;;10062202;28;20151;-74
2023/07/31 00:08:03;;;;;;;3.17;0.90;;;23.20;94.80;;;;;;10065936;28;20048;-70
2023/07/31 00:12:53;;;;;;;3.53;1.10;;;23.20;94.80;;;;;;10063112;28;20490;-70
2023/07/31 00:17:44;;;;;;;3.47;1.30;;;23.00;95.00;;;;;;10063401;28;20519;-70
2023/07/31 00:22:36;;;;;;;3.22;1.10;;;23.00;95.00;;;;;;10066725;28;20032;-70
2023/07/31 00:27:26;;;;;;;1.85;0.77;;;22.80;95.20;;;;;;10063130;28;20060;-70
2023/07/31 00:32:17;;;;;;;2.47;0.80;;;22.90;95.10;;;;;;10062119;28;20587;-70
2023/07/31 00:37:08;;;;;;;5.93;1.38;;;22.80;95.20;;;;;;10062472;28;20128;-71
2023/07/31 00:41:58;;;;;;;2.05;0.93;;;22.70;95.30;;;;;;10062032;28;20044;-70
2023/07/31 00:46:49;;;;;;;2.60;1.00;;;22.80;95.10;;;;;;10062549;28;20037;-71
2023/07/31 00:51:40;;;;;;;3.15;1.38;;;22.80;95.20;;;;;;10061193;28;20048;-74
2023/07/31 00:56:31;;;;;;;2.30;0.95;;;22.70;95.20;;;;;;10061435;28;20139;-74
2023/07/31 01:01:21;;;;;;;2.92;1.10;;;22.80;95.10;;;;;;10055652;28;20029;-73
2023/07/31 01:06:30;;;;;;;2.03;0.90;;;22.60;95.30;;;;;;10061416;28;20075;-74
2023/07/31 01:11:37;;;;;;;2.60;0.90;;;22.60;95.10;;;;;;10064449;28;20037;-72
2023/07/31 01:16:27;;;;;;;2.30;1.00;;;22.60;95.20;;;;;;10060861;28;20535;-74
2023/07/31 01:21:24;;;;;;;1.70;0.90;;;22.50;95.30;;;;;;10059141;28;20120;-72
2023/07/31 01:26:29;;;;;;;2.55;1.38;;;22.40;95.30;;;;;;10059972;28;20018;-72
2023/07/31 01:31:25;;;;;;;2.08;0.90;;;22.30;95.50;;;;;;10060007;28;20036;-72
2023/07/31 01:36:16;;;;;;;3.03;1.20;;;22.20;95.60;;;;;;10060320;28;20025;-72
2023/07/31 01:41:06;;;;;;;1.40;0.90;;;22.30;95.60;;;;;;10059769;28;20523;-70
2023/07/31 01:45:57;;;;;;;5.82;0.93;;;22.10;95.60;;;;;;10059164;28;20069;-71
2023/07/31 01:50:48;;;;;;;1.92;0.98;;;22.10;95.50;;;;;;10058871;28;20081;-71
2023/07/31 01:55:38;;;;;;;1.92;1.00;;;22.10;95.60;;;;;;10058519;28;20053;-71
2023/07/31 02:00:29;;;;;;;3.10;1.20;;;22.10;95.50;;;;;;10058712;28;20033;-71
2023/07/31 02:05:20;;;;;;;1.10;1.00;;;22.00;95.60;;;;;;10057617;28;20133;-72
2023/07/31 02:10:10;;;;;;;2.55;0.82;;;21.80;95.80;;;;;;10058335;28;20033;-70
2023/07/31 02:15:01;;;;;;;5.85;1.30;;;21.90;95.80;;;;;;10057634;28;20029;-71
2023/07/31 02:19:51;;;;;;;2.70;1.20;;;21.80;96.00;;;;;;10057745;28;20048;-71
2023/07/31 02:24:42;;;;;;;2.05;0.90;;;21.80;96.10;;;;;;10057268;28;20033;-72
2023/07/31 02:29:33;;;;;;;1.20;0.73;;;21.80;96.10;;;;;;10058295;28;20029;-72
2023/07/31 02:34:23;;;;;;;4.32;1.58;;;21.80;96.50;;;;;;10056511;28;20061;-72
2023/07/31 02:39:14;;;;;;;3.22;1.23;;;21.90;96.30;;;;;;10057550;28;20029;-72
2023/07/31 02:44:04;;;;;;;3.97;1.17;;;21.70;96.60;;;;;;10057347;28;20022;-71
2023/07/31 02:48:55;;;;;;;2.33;1.45;;;21.70;96.80;;;;;;10057545;28;20132;-71
2023/07/31 02:53:46;;;;;;;1.25;0.82;;;21.70;96.90;;;;;;10058094;28;20076;-70
2023/07/31 02:58:36;;;;;;;1.92;1.23;;;21.60;97.10;;;;;;10056989;28;20106;-70
2023/07/31 03:03:27;;;;;;;2.25;1.30;;;21.50;97.20;;;;;;10054203;28;20109;-70
2023/07/31 03:08:18;;;;;;;3.75;1.20;;;21.50;97.30;;;;;;10053287;28;20636;-72
2023/07/31 03:13:08;;;;;;;4.35;1.60;;;21.50;97.70;;;;;;10053231;28;20040;-70
2023/07/31 03:17:59;;;;;;;2.50;2.03;;;21.40;97.90;;;;;;10056124;28;20049;-71
2023/07/31 03:22:50;;;;;;;2.20;1.13;;;21.30;98.10;;;;;;10056238;28;20033;-71
2023/07/31 03:27:40;;;;;;;2.45;1.05;;;21.40;98.20;;;;;;10057015;28;20047;-72
2023/07/31 03:32:31;;;;;;;2.42;1.23;;;21.20;98.40;;;;;;10046657;28;20092;-72
2023/07/31 03:37:21;;;;;;;2.58;1.35;;;21.10;98.70;;;;;;10056133;28;20528;-72
2023/07/31 03:42:12;;;;;;;1.88;1.20;;;21.20;98.60;;;;;;10056362;28;20022;-71
2023/07/31 03:47:03;;;;;;;1.67;1.15;;;21.10;98.70;;;;;;10055837;28;20033;-71
2023/07/31 03:51:54;;;;;;;3.28;1.20;;;21.00;99.00;;;;;;10055211;28;20053;-70
2023/07/31 03:56:45;;;;;;;2.28;0.95;;;21.10;98.90;;;;;;10059517;28;20128;-69
2023/07/31 04:01:35;;;;;;;1.38;0.90;;;21.00;99.30;;;;;;10064252;28;20173;-69
2023/07/31 04:06:26;;;;;;;2.22;1.05;;;21.00;99.20;;;;;;10055763;28;20434;-70
2023/07/31 04:11:16;;;;;;;6.13;1.35;;;21.00;99.30;;;;;;10055249;28;20032;-70
2023/07/31 04:16:07;;;;;;;2.13;1.30;;;20.90;99.50;;;;;;10055852;28;20033;-71
2023/07/31 04:20:58;;;;;;;3.08;1.27;;;20.90;99.60;;;;;;10066548;28;20427;-70
2023/07/31 04:25:49;;;;;;;1.67;1.15;;;20.90;99.70;;;;;;10067611;28;20038;-71
2023/07/31 04:30:39;;;;;;;3.67;1.83;;;20.80;99.90;;;;;;10067911;28;20033;-70
2023/07/31 04:35:30;;;;;;;3.67;1.25;;;20.70;99.80;;;;;;10064968;28;20029;-70
2023/07/31 04:40:21;;;;;;;14.82;1.50;;;20.80;99.90;;;;;;10067649;28;20120;-71
2023/07/31 04:45:12;;;;;;;2.83;1.50;;;20.70;99.90;;;;;;10061818;28;20028;-70
2023/07/31 04:50:02;;;;;;;2.22;1.08;;;20.70;99.90;;;;;;10064629;28;20064;-69
2023/07/31 04:54:53;;;;;;;3.10;1.05;;;20.60;99.90;;;;;;10060985;28;20475;-69
2023/07/31 04:59:44;;;;;;;3.58;1.63;;;20.60;99.90;;;;;;10059458;28;20052;-70
2023/07/31 05:04:35;;;;;;;1.17;1.00;;;20.60;99.90;;;;;;10057202;28;20025;-70
2023/07/31 05:09:26;;;;;;;1.95;1.10;;;20.70;99.90;;;;;;10056610;28;20036;-71
2023/07/31 05:14:17;;;;;;;1.85;1.15;;;20.70;99.90;;;;;;10058202;28;20031;-70
2023/07/31 05:19:07;;;;;;;1.88;1.20;;;20.60;99.90;;;;;;10057258;28;20511;-71
2023/07/31 05:23:58;;;;;;;1.70;1.13;;;20.60;99.90;;;;;;10060691;28;20037;-71
2023/07/31 05:28:49;;;;;;;3.50;1.27;;;20.50;99.90;;;;;;10058393;28;20033;-71
2023/07/31 05:33:39;;;;;;;3.25;1.30;;;20.60;99.90;;;;;;10056307;28;20033;-70
2023/07/31 05:38:30;;;;;;;2.17;1.30;;;20.70;99.90;;;;;;10060611;28;20552;-71
2023/07/31 05:43:21;;;;;;;4.78;2.20;;;20.70;99.90;;;;;;10061368;28;20032;-71
2023/07/31 05:48:11;;;;;;;2.03;1.30;;;20.70;99.90;;;;;;10055627;28;20041;-71
2023/07/31 05:53:03;;;;;;;2.67;2.00;;;20.70;99.90;;;;;;10058475;28;20507;-70
2023/07/31 05:57:53;;;;;;;2.15;1.00;;;20.60;99.90;;;;;;10056544;28;20048;-71
2023/07/31 06:02:44;;;;;;;2.50;1.10;;;20.50;99.90;;;;;;10060764;28;20052;-72
2023/07/31 06:07:38;;;;;;;3.15;1.20;;;20.70;99.90;;;;;;10054513;28;20040;-70
2023/07/31 06:12:29;;;;;;;3.05;1.52;;;20.70;99.90;;;;;;10055462;28;20136;-71
2023/07/31 06:17:20;;;;;;;2.42;1.13;;;20.70;99.90;;;;;;10054916;28;20136;-71
2023/07/31 06:22:11;;;;;;;4.80;1.70;;;20.70;99.90;;;;;;10055418;28;20022;-70
2023/07/31 06:27:03;;;;;;;2.33;1.50;;;20.60;99.90;;;;;;10054502;28;20021;-71
2023/07/31 06:31:54;;;;;;;1.80;1.10;;;20.60;99.90;;;;;;10054578;28;20032;-71
2023/07/31 06:36:46;;;;;;;4.53;1.60;;;20.60;99.90;;;;;;10065129;28;20411;-73
2023/07/31 06:41:38;;;;;;;2.20;1.38;;;20.70;99.90;;;;;;10058775;28;20034;-77
2023/07/31 06:46:29;;;;;;;3.00;1.35;;;20.70;99.90;;;;;;10056690;28;20051;-75
2023/07/31 06:51:19;;;;;;;3.92;1.50;;;20.70;99.90;;;;;;10056125;28;20176;-72
2023/07/31 06:56:10;;;;;;;5.68;1.40;;;20.80;99.90;;;;;;10051960;28;20112;-73
2023/07/31 07:01:01;;;;;;;2.58;1.50;;;20.90;99.90;;;;;;10054281;28;20474;-74
2023/07/31 07:05:51;;;;;;;2.70;1.60;;;20.90;99.90;;;;;;10054286;28;20365;-74
2023/07/31 07:10:42;;;;;;;4.05;1.85;;;20.90;99.90;;;;;;10049977;28;20392;-74
2023/07/31 07:15:32;;;;;;;2.75;1.73;;;20.90;99.90;;;;;;10055793;28;20091;-71
2023/07/31 07:20:24;;;;;;;2.83;1.77;;;20.90;99.90;;;;;;10054099;28;20148;-73
2023/07/31 07:25:14;;;;;;;3.92;1.75;;;20.90;99.90;;;;;;10054511;28;20061;-72
2023/07/31 07:30:06;;;;;;;3.97;1.42;;;21.00;99.90;;;;;;10054648;28;20064;-74
2023/07/31 07:34:57;;;;;;;2.75;1.25;;;21.10;99.90;;;;;;10069478;28;20116;-72
2023/07/31 07:39:48;;;;;;;3.47;1.30;;;21.20;99.90;;;;;;10055434;28;20042;-72
2023/07/31 07:44:39;;;;;;;3.10;1.55;;;21.20;99.90;;;;;;10053928;28;20029;-73
2023/07/31 07:49:30;;;;;;;6.25;1.58;;;21.20;99.90;;;;;;10053109;28;20167;-72
2023/07/31 07:54:21;;;;;;;4.10;1.40;;;21.20;99.90;;;;;;10064667;28;20140;-71
2023/07/31 07:59:11;;;;;;;3.13;1.50;;;21.10;99.90;;;;;;10068188;28;20045;-72
2023/07/31 08:04:02;;;;;;;1.55;1.05;;;21.00;99.90;;;;;;10071086;28;20033;-71
2023/07/31 08:08:54;;;;;;;2.13;1.35;;;21.00;99.90;;;;;;10046900;28;20061;-72
2023/07/31 08:13:45;;;;;;;3.78;1.33;;;21.20;99.90;;;;;;10062031;28;20025;-72
2023/07/31 08:18:36;;;;;;;6.47;2.33;;;21.30;99.90;;;;;;10061685;28;20049;-71
2023/07/31 08:23:27;;;;;;;4.47;1.50;;;21.30;99.90;;;;;;10061294;28;20487;-71
2023/07/31 08:28:17;;;;;;;4.15;1.13;;;21.30;99.90;;;;;;10060445;28;20030;-72
2023/07/31 08:33:08;;;;;;;3.30;1.52;;;21.40;99.90;;;;;;10060709;28;20398;-73
2023/07/31 08:37:59;;;;;;;3.88;1.67;;;21.40;99.90;;;;;;10062684;28;20033;-71
2023/07/31 08:42:53;;;;;;;2.50;1.40;;;21.60;99.90;;;;;;10061024;28;20079;-71
2023/07/31 08:47:48;;;;;;;2.53;1.00;;;21.50;99.90;;;;;;10061690;28;20487;-71
2023/07/31 08:52:39;;;;;;;2.35;1.55;;;21.50;99.90;;;;;;10065261;28;20056;-69
2023/07/31 08:57:31;;;;;;;2.90;1.48;;;21.70;99.90;;;;;;10059197;28;20041;-69
2023/07/31 09:02:22;;;;;;;4.32;1.63;;;21.80;99.90;;;;;;10053826;28;20109;-71
2023/07/31 09:07:17;;;;;;;3.05;1.25;;;21.80;99.90;;;;;;10056265;28;20403;-71
2023/07/31 09:12:08;;;;;;;2.40;1.25;;;22.00;99.90;;;;;;10057902;28;20087;-73
2023/07/31 09:16:59;;;;;;;4.70;1.83;;;22.20;99.90;;;;;;10058868;28;20150;-75
2023/07/31 09:21:50;;;;;;;3.80;1.30;;;22.20;99.90;;;;;;10057990;28;20087;-72
2023/07/31 09:26:41;;;;;;;5.40;1.55;;;22.40;99.90;;;;;;10056679;28;20026;-73
2023/07/31 09:31:42;;;;;;;2.35;1.58;;;22.40;99.90;;;;;;10058411;28;20022;-77
2023/07/31 09:36:39;;;;;;;2.60;1.30;;;22.50;99.90;;;;;;10050842;28;20479;-78
2023/07/31 09:41:31;;;;;;;2.80;1.50;;;22.50;99.90;;;;;;10063546;28;20091;-74
2023/07/31 09:46:21;;;;;;;2.90;1.00;;;22.50;99.90;;;;;;10073162;28;20029;-73
2023/07/31 09:51:12;;;;;;;3.25;1.40;;;22.40;99.90;;;;;;10058384;28;20080;-81
2023/07/31 09:56:04;;;;;;;2.20;1.35;;;22.50;99.90;;;;;;10059962;28;20037;-69
2023/07/31 10:00:59;;;;;;;3.00;1.42;;;22.60;99.90;;;;;;10056536;28;20065;-72
2023/07/31 10:05:53;;;;;;;2.27;1.23;;;22.50;99.90;;;;;;10055498;28;20024;-75
2023/07/31 10:10:45;;;;;;;3.30;1.70;;;22.40;99.90;;;;;;10051116;28;20315;-74
2023/07/31 10:15:36;;;;;;;4.53;2.35;;;22.30;99.90;;;;;;10053834;28;20017;-76
2023/07/31 10:20:28;;;;;;;3.08;1.63;;;22.30;99.90;;;;;;10055940;28;20033;-76
2023/07/31 10:25:21;;;;;;;4.80;1.45;;;22.40;99.90;;;;;;10055373;28;20026;-75
2023/07/31 10:30:15;;;;;;;4.18;1.58;;;22.40;99.90;;;;;;10054734;28;20091;-76
2023/07/31 10:35:07;;;;;;;3.20;1.45;;;22.40;99.90;;;;;;10053088;28;20099;-74
2023/07/31 10:40:05;;;;;;;3.67;1.50;;;22.40;99.90;;;;;;10060860;28;20049;-73
2023/07/31 10:45:01;;;;;;;4.15;2.15;;;22.40;99.90;;;;;;10056046;28;20033;-72
2023/07/31 10:49:52;;;;;;;2.85;1.50;;;22.60;99.90;;;;;;10055753;28;20033;-71
2023/07/31 10:54:43;;;;;;;3.45;1.38;;;22.70;99.90;;;;;;10055866;28;20064;-73
2023/07/31 10:59:35;;;;;;;1.58;1.17;;;22.80;99.90;;;;;;10056278;28;20102;-74
2023/07/31 11:04:26;;;;;;;3.78;1.92;;;22.80;99.90;;;;;;10055971;28;20080;-74
2023/07/31 11:09:17;;;;;;;4.20;1.55;;;22.90;99.90;;;;;;10055839;28;20025;-75
2023/07/31 11:14:10;;;;;;;3.05;1.45;;;23.20;99.90;;;;;;10065281;28;20030;-72
2023/07/31 11:19:01;;;;;;;4.25;1.50;;;23.30;99.90;;;;;;10056218;28;20052;-72
2023/07/31 11:23:56;;;;;;;2.70;1.60;;;23.50;99.90;;;;;;10059209;28;20096;-74
2023/07/31 11:28:48;;;;;;;2.15;1.27;;;23.40;99.90;;;;;;10061450;28;20063;-73
2023/07/31 11:33:38;;;;;;;4.40;1.83;;;23.50;99.90;;;;;;10064248;28;20025;-70
2023/07/31 11:38:33;;;;;;;2.40;1.60;;;23.50;99.90;;;;;;10063066;28;20079;-72
2023/07/31 11:43:26;;;;;;;3.50;1.80;;;23.40;99.80;;;;;;10063842;28;20040;-73
2023/07/31 11:48:21;;;;;;;3.03;1.27;;;23.40;99.80;;;;;;10063892;28;20033;-70
2023/07/31 11:53:13;;;;;;;2.47;1.23;;;23.50;99.70;;;;;;10067634;28;20037;-72
2023/07/31 11:58:04;;;;;;;4.30;1.80;;;23.50;99.90;;;;;;10079243;28;20045;-72
2023/07/31 12:02:55;;;;;;;8.57;1.63;;;23.60;99.50;;;;;;10063556;28;20033;-70
2023/07/31 12:07:48;;;;;;;3.88;1.75;;;23.70;99.70;;;;;;10077556;28;20499;-73
2023/07/31 12:12:38;;;;;;;3.72;1.58;;;23.80;99.30;;;;;;10062445;28;20025;-73
2023/07/31 12:17:29;;;;;;;4.18;1.90;;;23.90;99.40;;;;;;10062204;28;20117;-73
2023/07/31 12:22:21;;;;;;;3.38;1.83;;;24.10;99.10;;;;;;10057686;28;20079;-72
2023/07/31 12:27:15;;;;;;;3.80;2.00;;;24.10;99.00;;;;;;10061737;28;20049;-70
2023/07/31 12:32:19;;;;;;;3.43;1.90;;;24.20;99.00;;;;;;10059748;28;20033;-74
2023/07/31 12:37:10;;;;;;;3.15;1.42;;;24.20;98.90;;;;;;10061285;28;20304;-72
2023/07/31 12:42:01;;;;;;;2.78;1.52;;;24.20;98.90;;;;;;10060851;28;20029;-68
2023/07/31 12:46:51;;;;;;;2.42;1.75;;;24.20;98.80;;;;;;10071520;28;20063;-72
2023/07/31 12:51:42;;;;;;;3.78;1.50;;;24.20;98.70;;;;;;10062162;28;20046;-70
2023/07/31 12:56:33;;;;;;;3.78;1.73;;;24.30;98.70;;;;;;10060982;28;20044;-70
2023/07/31 13:01:23;;;;;;;3.25;1.50;;;24.30;98.60;;;;;;10055152;28;20475;-72
2023/07/31 13:06:14;;;;;;;3.53;1.73;;;24.40;98.60;;;;;;10060654;28;20040;-70
2023/07/31 13:11:04;;;;;;;2.95;1.35;;;24.50;98.60;;;;;;10056637;28;20039;-72
2023/07/31 13:15:55;;;;;;;2.58;1.48;;;24.60;98.50;;;;;;10065285;28;20116;-72
2023/07/31 13:20:46;;;;;;;3.00;1.80;;;24.70;98.40;;;;;;10066029;28;20041;-73
2023/07/31 13:25:36;;;;;;;3.38;1.90;;;24.70;98.40;;;;;;10067242;28;20435;-81
2023/07/31 13:30:27;;;;;;;3.92;1.80;;;24.70;98.30;;;;;;10059554;28;20488;-77
2023/07/31 13:35:18;;;;;;;4.43;1.85;;;24.90;98.40;;;;;;10060094;28;20484;-75
2023/07/31 13:40:09;;;;;;;5.85;2.13;;;25.00;98.30;;;;;;10059415;28;20041;-75
2023/07/31 13:45:00;;;;;;;3.72;1.88;;;25.20;98.30;;;;;;10059767;28;20674;-71
2023/07/31 13:49:50;;;;;;;3.15;2.33;;;25.20;98.20;;;;;;10058269;28;20571;-76
2023/07/31 13:54:42;;;;;;;3.35;1.23;;;25.00;98.20;;;;;;10058259;28;20068;-78
2023/07/31 13:59:33;;;;;;;2.90;1.58;;;24.90;98.30;;;;;;10058997;28;20041;-76
2023/07/31 14:04:24;;;;;;;3.05;1.40;;;24.80;98.10;;;;;;10058873;28;20032;-78
2023/07/31 14:09:14;;;;;;;2.88;1.35;;;24.80;98.00;;;;;;10058220;28;20041;-78
2023/07/31 14:14:05;;;;;;;4.55;1.55;;;24.90;97.90;;;;;;10058533;28;20526;-77
2023/07/31 14:18:55;;;;;;;1.83;1.45;;;24.90;97.70;;;;;;10060552;28;20041;-80
2023/07/31 14:23:46;;;;;;;4.15;1.35;;;24.90;97.60;;;;;;10060264;28;20381;-79
2023/07/31 14:28:38;;;;;;;2.20;1.30;;;24.90;97.50;;;;;;10060924;28;20037;-75
2023/07/31 14:33:28;;;;;;;2.50;1.70;;;25.10;97.40;;;;;;10060148;28;20018;-73
2023/07/31 14:38:19;;;;;;;6.80;1.73;;;25.20;97.20;;;;;;10054949;28;20037;-74
2023/07/31 14:43:09;;;;;;;3.50;1.50;;;25.20;97.10;;;;;;10059160;28;20025;-80
2023/07/31 14:48:00;;;;;;;2.03;1.13;;;25.20;97.00;;;;;;10061716;28;20029;-74
2023/07/31 14:52:51;;;;;;;2.33;1.45;;;25.10;97.00;;;;;;10058896;28;20518;-72
2023/07/31 14:57:41;;;;;;;2.53;1.48;;;25.10;96.90;;;;;;10059003;28;20076;-70
2023/07/31 15:02:32;;;;;;;1.90;1.38;;;25.20;96.90;;;;;;10058649;28;20025;-75
2023/07/31 15:07:23;;;;;;;2.80;1.30;;;25.30;96.80;;;;;;10060209;28;20045;-76
2023/07/31 15:12:13;;;;;;;4.15;1.92;;;25.30;96.70;;;;;;10058388;28;20037;-83
2023/07/31 15:17:04;;;;;;;4.20;1.90;;;25.30;96.60;;;;;;10058072;28;20033;-72
2023/07/31 15:21:55;;;;;;;2.50;1.38;;;25.40;96.70;;;;;;10057532;28;20163;-75
2023/07/31 15:26:46;;;;;;;2.97;1.40;;;25.30;96.60;;;;;;10057354;28;20033;-73
2023/07/31 15:31:40;;;;;;;3.30;1.45;;;25.40;96.60;;;;;;10056621;28;20033;-73
2023/07/31 15:36:31;;;;;;;1.67;1.00;;;25.10;96.60;;;;;;10055963;28;20033;-79
2023/07/31 15:41:23;;;;;;;3.40;1.42;;;25.10;96.70;;;;;;10055271;28;20055;-80
2023/07/31 15:46:14;;;;;;;4.00;1.88;;;25.10;96.70;;;;;;10061465;28;20083;-75
2023/07/31 15:51:04;;;;;;;4.90;1.70;;;25.10;96.60;;;;;;10055747;28;20099;-81
2023/07/31 15:55:55;;;;;;;3.15;1.85;;;25.10;96.60;;;;;;10056075;28;20223;-79
2023/07/31 16:00:46;;;;;;;4.75;1.42;;;25.10;96.60;;;;;;10060388;28;20525;-76
2023/07/31 16:05:37;;;;;;;3.33;1.38;;;25.10;96.60;;;;;;10054009;28;20034;-76
2023/07/31 16:10:27;;;;;;;2.38;1.23;;;25.20;96.70;;;;;;10055258;28;20022;-73
2023/07/31 16:15:18;;;;;;;4.00;1.70;;;25.10;96.70;;;;;;10059976;28;20239;-73
2023/07/31 16:20:09;;;;;;;1.92;1.52;;;25.10;96.70;;;;;;10062197;28;20033;-76
2023/07/31 16:25:00;;;;;;;3.00;1.85;;;25.10;96.70;;;;;;10062557;28;20091;-75
2023/07/31 16:29:50;;;;;;;6.57;1.70;;;25.10;96.70;;;;;;10061864;28;20037;-76
2023/07/31 16:34:41;;;;;;;2.20;1.33;;;25.00;96.70;;;;;;10061856;28;20025;-79
2023/07/31 16:39:35;;;;;;;3.00;1.63;;;25.00;96.70;;;;;;10071270;28;20034;-76
2023/07/31 16:44:25;;;;;;;2.85;1.90;;;25.10;96.80;;;;;;10063056;28;20052;-76
2023/07/31 16:49:16;;;;;;;2.50;1.42;;;25.10;96.70;;;;;;10061533;28;20037;-76
2023/07/31 16:54:06;;;;;;;4.18;2.10;;;25.20;96.70;;;;;;10062050;28;21552;-75
2023/07/31 16:58:57;;;;;;;6.75;1.95;;;25.00;96.90;;;;;;10053413;28;20050;-73
2023/07/31 17:03:48;;;;;;;2.47;1.40;;;24.90;97.10;;;;;;10062359;28;20036;-80
2023/07/31 17:08:38;;;;;;;5.57;2.28;;;24.70;97.50;;;;;;10060487;28;20044;-80
2023/07/31 17:13:29;;;;;;;3.22;2.10;;;24.70;97.80;;;;;;10061026;28;20541;-74
2023/07/31 17:18:19;;;;;;;2.92;2.00;;;24.70;98.00;;;;;;10059512;28;20067;-76
2023/07/31 17:23:10;;;;;;;4.88;2.53;;;24.70;98.30;;;;;;10057943;28;20241;-75
2023/07/31 17:28:01;;;;;;;4.57;2.38;;;24.50;98.60;;;;;;10056973;28;20038;-75
2023/07/31 17:32:51;;;;;;;4.95;2.30;;;24.20;99.20;;;;;;10057215;28;20064;-75
2023/07/31 17:37:42;;;;;;;4.85;2.38;;;24.10;99.50;;;;;;10056193;28;20071;-76
2023/07/31 17:42:32;;;;;;;5.32;3.13;;;23.90;99.90;;;;;;10056369;28;20029;-77
2023/07/31 17:47:23;;;;;;;8.57;2.88;;;24.00;99.90;;;;;;10059691;28;20025;-80
2023/07/31 17:52:14;;;;;;;4.22;2.45;;;23.90;99.90;;;;;;10061042;28;20446;-80
2023/07/31 17:57:04;;;;;;;6.55;2.30;;;23.90;99.90;;;;;;10064075;28;20033;-82
2023/07/31 18:01:55;;;;;;;4.03;2.08;;;23.80;99.90;;;;;;10058994;28;20036;-80
2023/07/31 18:06:46;;;;;;;5.35;2.67;;;23.90;99.90;;;;;;10059391;28;20038;-81
2023/07/31 18:11:36;;;;;;;5.15;2.20;;;23.90;99.90;;;;;;10058276;28;20029;-81
2023/07/31 18:16:27;;;;;;;3.65;2.17;;;24.00;99.90;;;;;;10059170;28;20387;-80
2023/07/31 18:21:17;;;;;;;5.45;2.55;;;23.90;99.90;;;;;;10058043;28;20120;-75
2023/07/31 18:26:08;;;;;;;6.60;3.33;;;23.90;99.90;;;;;;10058787;28;20055;-77
2023/07/31 18:31:02;;;;;;;6.38;2.33;;;23.90;99.90;;;;;;10057320;28;20037;-74
2023/07/31 18:35:53;;;;;;;4.87;3.03;;;23.70;99.90;;;;;;10055747;28;20108;-74
2023/07/31 18:40:44;;;;;;;6.55;2.75;;;23.70;99.90;;;;;;10055174;28;20144;-67
2023/07/31 18:45:34;;;;;;;7.38;2.88;;;23.70;99.90;;;;;;10056943;28;20144;-74
2023/07/31 18:50:25;;;;;;;5.32;2.60;;;23.70;99.90;;;;;;10057339;28;20483;-76
2023/07/31 18:55:16;;;;;;;8.95;3.13;;;23.50;99.90;;;;;;10057529;28;20566;-71
2023/07/31 19:00:07;;;;;;;7.00;2.83;;;23.40;99.90;;;;;;10046219;28;20511;-73
2023/07/31 19:04:58;;;;;;;6.22;2.85;;;23.40;99.90;;;;;;10052424;28;20021;-77
2023/07/31 19:09:48;;;;;;;6.38;3.25;;;23.40;99.90;;;;;;10056307;28;20037;-76
2023/07/31 19:14:40;;;;;;;5.93;3.45;;;23.40;99.90;;;;;;10052581;28;20517;-80
2023/07/31 19:19:30;;;;;;;4.60;2.65;;;23.30;99.90;;;;;;10054885;28;20135;-74
2023/07/31 19:24:22;;;;;;;5.60;2.85;;;23.30;99.90;;;;;;10056936;28;20199;-81
2023/07/31 19:29:13;;;;;;;4.95;3.03;;;23.40;99.90;;;;;;10051728;28;20061;-79
2023/07/31 19:34:03;;;;;;;8.15;2.90;;;23.40;99.90;;;;;;10056507;28;20420;-75
2023/07/31 19:38:54;;;;;;;4.57;2.30;;;23.30;99.90;;;;;;10054400;28;20072;-73
2023/07/31 19:43:45;;;;;;;4.63;2.13;;;23.10;99.90;;;;;;10056714;28;20476;-74
2023/07/31 19:48:36;;;;;;;5.78;2.30;;;23.10;99.90;;;;;;10060943;28;20029;-72
2023/07/31 19:53:26;;;;;;;3.60;2.33;;;23.00;99.90;;;;;;10064502;28;20045;-74
2023/07/31 19:58:17;;;;;;;4.82;2.45;;;23.00;99.90;;;;;;10066860;28;20040;-76
2023/07/31 20:03:07;;;;;;;4.82;2.67;;;23.00;99.90;;;;;;10056495;28;20403;-76
2023/07/31 20:07:58;;;;;;;6.78;2.70;;;22.90;99.90;;;;;;10064778;28;20037;-75
2023/07/31 20:12:49;;;;;;;4.82;2.85;;;22.90;99.90;;;;;;10058557;28;20033;-77
2023/07/31 20:17:39;;;;;;;7.68;2.97;;;22.90;99.90;;;;;;10061214;28;20033;-74
2023/07/31 20:22:30;;;;;;;6.05;2.22;;;22.90;99.90;;;;;;10061665;28;20056;-73
2023/07/31 20:27:22;;;;;;;6.22;2.35;;;23.00;99.90;;;;;;10061850;28;20396;-73
2023/07/31 20:32:12;;;;;;;4.97;2.17;;;23.10;99.90;;;;;;10061576;28;20398;-74
2023/07/31 20:37:03;;;;;;;3.47;1.90;;;23.20;99.90;;;;;;10069930;28;20029;-74
2023/07/31 20:41:54;;;;;;;4.18;2.47;;;23.20;99.90;;;;;;10067142;28;20033;-73
2023/07/31 20:46:55;;;;;;;3.28;2.03;;;23.10;99.90;;;;;;10057378;28;20121;-72
2023/07/31 20:51:47;;;;;;;8.85;2.28;;;23.10;99.90;;;;;;10060251;28;20054;-74
2023/07/31 20:56:37;;;;;;;3.47;2.00;;;23.10;99.90;;;;;;10064693;28;20517;-73
2023/07/31 21:01:29;;;;;;;4.13;1.80;;;23.10;99.90;;;;;;10059642;28;20038;-73
2023/07/31 21:06:20;;;;;;;5.65;2.63;;;23.10;99.90;;;;;;10060332;28;20021;-74
2023/07/31 21:11:11;;;;;;;4.22;2.20;;;23.00;99.90;;;;;;10051675;28;20400;-74
2023/07/31 21:16:02;;;;;;;4.68;2.80;;;23.00;99.90;;;;;;10060088;28;20037;-75
2023/07/31 21:20:53;;;;;;;5.03;2.10;;;22.90;99.90;;;;;;10059772;28;20044;-71
2023/07/31 21:25:44;;;;;;;4.07;2.67;;;22.90;99.90;;;;;;10060029;28;20162;-75
2023/07/31 21:30:35;;;;;;;3.88;2.33;;;22.90;99.90;;;;;;10058729;28;20044;-74
2023/07/31 21:35:25;;;;;;;4.55;2.13;;;22.80;99.90;;;;;;10079528;28;20044;-76
2023/07/31 21:40:16;;;;;;;2.78;2.05;;;23.00;99.90;;;;;;10061263;28;20468;-76
2023/07/31 21:45:07;;;;;;;3.95;2.30;;;22.90;99.90;;;;;;10058407;28;20100;-77
2023/07/31 21:49:58;;;;;;;4.05;2.28;;;22.80;99.90;;;;;;10060394;28;20036;-77
2023/07/31 21:54:48;;;;;;;3.60;1.95;;;22.90;99.90;;;;;;10058560;28;20079;-76
2023/07/31 21:59:39;;;;;;;5.32;2.40;;;22.90;99.90;;;;;;10060218;28;20440;-75
2023/07/31 22:04:30;;;;;;;4.85;1.70;;;22.90;99.90;;;;;;10057106;28;20048;-76
2023/07/31 22:09:20;;;;;;;4.80;2.38;;;22.90;99.90;;;;;;10033399;28;20033;-78
2023/07/31 22:14:11;;;;;;;3.10;1.80;;;22.90;99.90;;;;;;10056987;28;20036;-78
2023/07/31 22:19:02;;;;;;;4.72;2.33;;;22.80;99.90;;;;;;10057225;28;20041;-77
2023/07/31 22:23:52;;;;;;;3.03;2.00;;;22.70;99.90;;;;;;10057245;28;20034;-77
2023/07/31 22:28:43;;;;;;;4.50;2.05;;;22.80;99.90;;;;;;10059208;28;20088;-76
2023/07/31 22:33:35;;;;;;;3.40;2.00;;;22.80;99.90;;;;;;10057781;28;20407;-77
2023/07/31 22:38:25;;;;;;;3.35;1.92;;;22.80;99.90;;;;;;10057209;28;20037;-78
2023/07/31 22:43:16;;;;;;;4.80;2.67;;;22.90;99.90;;;;;;10060076;28;20025;-76
2023/07/31 22:48:06;;;;;;;2.35;2.00;;;22.80;99.90;;;;;;10057277;28;20246;-76
2023/07/31 22:52:57;;;;;;;4.65;2.33;;;22.90;99.90;;;;;;10058205;28;20115;-74
2023/07/31 22:57:48;;;;;;;2.85;1.67;;;22.80;99.90;;;;;;10056439;28;20514;-78
2023/07/31 23:02:38;;;;;;;5.35;2.30;;;22.70;99.90;;;;;;10057339;28;20029;-73
2023/07/31 23:07:29;;;;;;;3.42;1.80;;;22.70;99.90;;;;;;10057092;28;20396;-74
2023/07/31 23:12:20;;;;;;;7.80;2.15;;;22.70;99.90;;;;;;10056846;28;20029;-79
2023/07/31 23:17:10;;;;;;;4.13;1.52;;;22.70;99.90;;;;;;10071942;28;20414;-78
2023/07/31 23:22:01;;;;;;;4.25;2.08;;;22.70;99.90;;;;;;10057242;28;20067;-79
2023/07/31 23:26:51;;;;;;;3.30;1.88;;;22.70;99.90;;;;;;10064831;28;20056;-79
2023/07/31 23:31:44;;;;;;;4.53;1.88;;;22.70;99.90;;;;;;10064657;28;20030;-79
2023/07/31 23:36:35;;;;;;;3.53;2.45;;;22.80;99.90;;;;;;10066279;28;20051;-78
2023/07/31 23:41:25;;;;;;;3.47;1.83;;;22.80;99.90;;;;;;10065168;28;20133;-80
2023/07/31 23:46:16;;;;;;;4.72;2.03;;;22.70;99.90;;;;;;10065257;28;20045;-79
2023/07/31 23:51:07;;;;;;;3.58;2.00;;;22.70;99.90;;;;;;10064280;28;20049;-79
2023/07/31 23:55:58;;;;;;;4.00;2.17;;;22.60;99.90;;;;;;10061886;28;20029;-78
